Time;durP1;ratioP1;P1;durP2;ratioP2;P2;SDS_P1;SDS_P2;PMS_P1;PMS_P2;Temp;Humidity;BMP_temperature;BMP_pressure;BME280_temperature;BME280_humidity;BME280_pressure;Samples;Min_cycle;Max_cycle;Signal;HPM_P1;HPM_P2
2023/10/03 00:01:04;;;;;;;;;;;;;;;16.21;100.00;100915.19;5114098;28;19911;-50
2023/10/03 00:03:29;;;;;;;;;;;;;;;16.21;100.00;100910.00;5112661;28;19911;-49
2023/10/03 00:05:55;;;;;;;;;;;;;;;16.24;100.00;100910.03;5113876;28;19990;-50
2023/10/03 00:08:20;;;;;;;;;;;;;;;16.27;100.00;100898.78;5113573;28;19912;-48
2023/10/03 00:10:45;;;;;;;;;;;;;;;16.29;100.00;100891.84;5112828;28;19916;-50
2023/10/03 00:13:11;;;;;;;;;;;;;;;16.29;100.00;100886.66;5113662;28;19919;-50
2023/10/03 00:15:43;;;;;;;;;;;;;;;16.29;100.00;100886.66;5113939;28;19975;-49
2023/10/03 00:18:09;;;;;;;;;;;;;;;16.32;100.00;100886.69;5113138;28;19951;-49
2023/10/03 00:20:34;;;;;;;;;;;;;;;16.33;100.00;100880.59;5113228;28;19926;-49
2023/10/03 00:22:59;;;;;;;;;;;;;;;16.33;100.00;100877.13;5113531;28;19911;-49
2023/10/03 00:25:25;;;;;;;;;;;;;;;16.32;100.00;100884.09;5112589;28;19911;-49
2023/10/03 00:27:55;;;;;;;;;;;;;;;16.33;100.00;100880.59;5113768;28;20370;-49
2023/10/03 00:30:24;;;;;;;;;;;;;;;16.32;100.00;100871.09;5113460;28;19911;-49
2023/10/03 00:32:49;;;;;;;;;;;;;;;16.29;100.00;100873.63;5112807;28;19915;-49
2023/10/03 00:35:15;;;;;;;;;;;;;;;16.25;100.00;100864.09;5113455;28;19926;-50
2023/10/03 00:37:43;;;;;;;;;;;;;;;16.22;100.00;100858.88;5113521;28;19912;-50
2023/10/03 00:40:31;;;;;;;;;;;;;;;16.19;100.00;100858.84;5112583;28;19926;-50
2023/10/03 00:42:57;;;;;;;;;;;;;;;16.15;100.00;100852.75;5112622;28;19915;-50
2023/10/03 00:45:22;;;;;;;;;;;;;;;16.13;100.00;100844.06;5113231;28;19912;-49
2023/10/03 00:47:53;;;;;;;;;;;;;;;16.10;100.00;100841.44;5112751;28;20002;-45
2023/10/03 00:50:19;;;;;;;;;;;;;;;16.06;100.00;100832.78;5113044;28;20278;-49
2023/10/03 00:52:45;;;;;;;;;;;;;;;16.03;100.00;100827.53;5112612;28;19986;-50
2023/10/03 00:55:11;;;;;;;;;;;;;;;16.01;100.00;100813.69;5113293;28;20351;-47
2023/10/03 00:57:37;;;;;;;;;;;;;;;16.01;100.00;100811.06;5113311;28;20006;-47
2023/10/03 01:00:05;;;;;;;;;;;;;;;16.00;100.00;100809.34;5112533;28;20066;-46
2023/10/03 01:02:31;;;;;;;;;;;;;;;15.99;100.00;100794.59;5112981;28;19957;-47
2023/10/03 01:04:57;;;;;;;;;;;;;;;15.96;100.00;100786.78;5113222;28;19920;-47
2023/10/03 01:07:23;;;;;;;;;;;;;;;15.94;100.00;100775.50;5112094;28;19912;-50
2023/10/03 01:09:48;;;;;;;;;;;;;;;15.91;100.00;100773.75;5112997;28;19911;-47
2023/10/03 01:12:16;;;;;;;;;;;;;;;15.89;100.00;100767.66;5113135;28;20014;-49
2023/10/03 01:14:42;;;;;;;;;;;;;;;15.88;100.00;100760.75;5112425;28;20036;-49
2023/10/03 01:17:07;;;;;;;;;;;;;;;15.90;100.00;100763.34;5117083;28;20374;-49
2023/10/03 01:19:32;;;;;;;;;;;;;;;15.90;100.00;100758.16;5116630;28;19929;-49
2023/10/03 01:21:59;;;;;;;;;;;;;;;15.90;100.00;100753.81;5116047;28;19912;-49
2023/10/03 01:24:24;;;;;;;;;;;;;;;15.90;100.00;100751.22;5116787;28;19918;-47
2023/10/03 01:26:53;;;;;;;;;;;;;;;15.88;100.00;100752.94;5116953;28;19907;-48
2023/10/03 01:29:22;;;;;;;;;;;;;;;15.88;100.00;100744.25;5115679;28;19981;-49
2023/10/03 01:31:48;;;;;;;;;;;;;;;15.87;100.00;100743.41;5116663;28;20343;-49
2023/10/03 01:34:15;;;;;;;;;;;;;;;15.86;100.00;100748.59;5116113;28;19959;-50
2023/10/03 01:36:40;;;;;;;;;;;;;;;15.87;100.00;100742.50;5115882;28;20290;-49
2023/10/03 01:39:06;;;;;;;;;;;;;;;15.86;100.00;100746.84;5116846;28;19912;-49
2023/10/03 01:41:31;;;;;;;;;;;;;;;15.89;100.00;100743.41;5116346;28;19919;-49
2023/10/03 01:43:57;;;;;;;;;;;;;;;15.96;100.00;100717.47;5115725;28;19934;-49
2023/10/03 01:46:22;;;;;;;;;;;;;;;16.07;100.00;100714.91;5116169;28;20355;-50
2023/10/03 01:48:47;;;;;;;;;;;;;;;16.22;100.00;100719.31;5116402;28;20282;-50
2023/10/03 01:51:12;;;;;;;;;;;;;;;16.31;100.00;100731.50;5115415;28;19911;-50
2023/10/03 01:53:39;;;;;;;;;;;;;;;16.34;100.00;100723.69;5116459;28;19912;-50
2023/10/03 01:56:06;;;;;;;;;;;;;;;16.42;100.00;100722.00;5115314;28;20381;-50
2023/10/03 01:58:32;;;;;;;;;;;;;;;16.53;100.00;100721.16;5115652;28;20495;-49
2023/10/03 02:00:57;;;;;;;;;;;;;;;16.68;100.00;100717.72;5116126;28;19916;-50
2023/10/03 02:03:23;;;;;;;;;;;;;;;16.78;100.00;100729.91;5114955;28;19970;-50
2023/10/03 02:05:49;;;;;;;;;;;;;;;16.90;100.00;100718.63;5116237;28;19990;-49
2023/10/03 02:08:17;;;;;;;;;;;;;;;16.98;100.00;100727.38;5115944;28;20007;-49
2023/10/03 02:10:46;;;;;;;;;;;;;;;17.09;100.00;100715.22;5115024;28;20367;-49
2023/10/03 02:13:14;;;;;;;;;;;;;;;17.21;100.00;100708.28;5115651;28;20292;-49
2023/10/03 02:15:40;;;;;;;;;;;;;;;17.34;100.00;100699.59;5115860;28;19911;-51
2023/10/03 02:18:05;;;;;;;;;;;;;;;17.46;100.00;100705.69;5114908;28;19912;-49
2023/10/03 02:20:38;;;;;;;;;;;;;;;17.57;100.00;100706.50;5115757;28;19916;-49
2023/10/03 02:23:05;;;;;;;;;;;;;;;17.65;100.00;100693.47;5115897;28;19937;-50
2023/10/03 02:25:35;;;;;;;;;;;;;;;17.76;100.00;100702.97;5114769;28;19995;-48
2023/10/03 02:28:02;;;;;;;;;;;;;;;17.82;100.00;100680.38;5115090;28;20325;-50
2023/10/03 02:30:27;;;;;;;;;;;;;;;17.88;100.00;100670.81;5115158;28;19968;-50
2023/10/03 02:32:57;;;;;;;;;;;;;;;17.91;100.00;100680.38;5114931;28;19915;-50
2023/10/03 02:35:23;;;;;;;;;;;;;;;17.96;100.00;100691.69;5115279;28;19912;-49
2023/10/03 02:37:49;;;;;;;;;;;;;;;18.04;100.00;100708.16;5115409;28;20381;-49
2023/10/03 02:40:15;;;;;;;;;;;;;;;18.10;100.00;100702.94;5114420;28;19907;-48
2023/10/03 02:42:40;;;;;;;;;;;;;;;18.17;100.00;100695.09;5115507;28;19911;-47
2023/10/03 02:45:06;;;;;;;;;;;;;;;18.20;100.00;100703.75;5115462;28;19923;-49
2023/10/03 02:47:31;;;;;;;;;;;;;;;18.22;100.00;100695.94;5114285;28;20343;-49
2023/10/03 02:49:58;;;;;;;;;;;;;;;18.25;100.00;100706.34;5115208;28;19916;-50
2023/10/03 02:52:24;;;;;;;;;;;;;;;18.31;100.00;100705.44;5114310;28;19938;-49
2023/10/03 02:54:49;;;;;;;;;;;;;;;18.33;100.00;100709.78;5115040;28;19912;-50
2023/10/03 02:57:15;;;;;;;;;;;;;;;18.34;100.00;100706.28;5114770;28;20389;-49
2023/10/03 02:59:44;;;;;;;;;;;;;;;18.33;100.00;100714.13;5114305;28;19915;-49
2023/10/03 03:02:11;;;;;;;;;;;;;;;18.34;100.00;100711.50;5115102;28;19939;-49
2023/10/03 03:04:36;;;;;;;;;;;;;;;18.34;100.00;100710.66;5115099;28;19957;-49
2023/10/03 03:07:04;;;;;;;;;;;;;;;18.42;100.00;100719.31;5114227;28;19912;-49
2023/10/03 03:09:35;;;;;;;;;;;;;;;18.49;100.00;100710.59;5114539;28;19911;-48
2023/10/03 03:12:00;;;;;;;;;;;;;;;18.51;100.00;100713.19;5114788;28;19965;-48
2023/10/03 03:14:26;;;;;;;;;;;;;;;18.48;100.00;100705.38;5113553;28;19912;-51
2023/10/03 03:16:52;;;;;;;;;;;;;;;18.47;100.00;100711.47;5114919;28;19996;-50
2023/10/03 03:19:17;;;;;;;;;;;;;;;18.42;100.00;100706.25;5114535;28;19915;-50
2023/10/03 03:21:44;;;;;;;;;;;;;;;18.42;100.00;100706.25;5113922;28;19918;-48
2023/10/03 03:24:15;;;;;;;;;;;;;;;18.39;100.00;100707.13;5114598;28;19918;-50
2023/10/03 03:26:46;;;;;;;;;;;;;;;18.43;100.00;100708.84;5114426;28;19939;-50
2023/10/03 03:29:21;;;;;;;;;;;;;;;18.43;100.00;100703.63;5113574;28;19912;-50
2023/10/03 03:31:48;;;;;;;;;;;;;;;18.44;100.00;100701.91;5114563;28;19915;-49
2023/10/03 03:34:14;;;;;;;;;;;;;;;18.43;100.00;100700.16;5114187;28;19961;-48
2023/10/03 03:36:40;;;;;;;;;;;;;;;18.47;100.00;100701.03;5113510;28;19950;-50
2023/10/03 03:39:15;;;;;;;;;;;;;;;18.46;100.00;100699.28;5113213;28;20382;-50
2023/10/03 03:41:42;;;;;;;;;;;;;;;18.43;100.00;100701.03;5113666;28;20010;-49
2023/10/03 03:44:13;;;;;;;;;;;;;;;18.42;100.00;100709.75;5114305;28;19923;-51
2023/10/03 03:46:40;;;;;;;;;;;;;;;18.42;100.00;100707.16;5114330;28;19912;-49
2023/10/03 03:49:06;;;;;;;;;;;;;;;18.38;100.00;100702.78;5113258;28;19926;-48
2023/10/03 03:51:31;;;;;;;;;;;;;;;18.37;100.00;100705.41;5113810;28;19919;-50
2023/10/03 03:53:59;;;;;;;;;;;;;;;18.31;100.00;100708.03;5113937;28;19950;-50
2023/10/03 03:56:24;;;;;;;;;;;;;;;18.31;100.00;100711.53;5113033;28;19965;-50
2023/10/03 03:58:49;;;;;;;;;;;;;;;18.31;100.00;100708.94;5113812;28;19919;-49
2023/10/03 04:01:17;;;;;;;;;;;;;;;18.30;100.00;100716.78;5113673;28;20286;-50
2023/10/03 04:03:43;;;;;;;;;;;;;;;18.31;100.00;100721.97;5113122;28;19918;-49
2023/10/03 04:06:09;;;;;;;;;;;;;;;18.32;100.00;100722.84;5113848;28;19911;-48
2023/10/03 04:08:35;;;;;;;;;;;;;;;18.31;100.00;100723.69;5113428;28;19916;-50
2023/10/03 04:11:01;;;;;;;;;;;;;;;18.27;100.00;100728.09;5113118;28;19912;-48
2023/10/03 04:13:27;;;;;;;;;;;;;;;18.29;100.00;100733.28;5113649;28;19942;-49
2023/10/03 04:15:53;;;;;;;;;;;;;;;18.26;100.00;100737.63;5113772;28;20364;-49
2023/10/03 04:18:19;;;;;;;;;;;;;;;18.26;100.00;100736.78;5112647;28;20302;-49
2023/10/03 04:20:46;;;;;;;;;;;;;;;18.23;100.00;100745.47;5113607;28;19918;-48
2023/10/03 04:23:11;;;;;;;;;;;;;;;18.26;100.00;100744.59;5113346;28;19912;-48
2023/10/03 04:25:39;;;;;;;;;;;;;;;18.28;100.00;100753.28;5113013;28;19924;-49
2023/10/03 04:28:05;;;;;;;;;;;;;;;18.31;100.00;100750.66;5113659;28;20286;-50
2023/10/03 04:30:30;;;;;;;;;;;;;;;18.32;100.00;100764.56;5113293;28;19912;-48
2023/10/03 04:32:57;;;;;;;;;;;;;;;18.33;100.00;100768.91;5112917;28;20268;-50
2023/10/03 04:35:23;;;;;;;;;;;;;;;18.34;100.00;100763.69;5113313;28;19911;-49
2023/10/03 04:37:51;;;;;;;;;;;;;;;18.36;100.00;100756.75;5112717;28;19918;-46
2023/10/03 04:40:35;;;;;;;;;;;;;;;18.40;100.00;100762.81;5113347;28;19922;-50
2023/10/03 04:43:06;;;;;;;;;;;;;;;18.43;100.00;100768.88;5113638;28;19918;-50
2023/10/03 04:45:35;;;;;;;;;;;;;;;18.45;100.00;100778.44;5112363;28;19915;-49
2023/10/03 04:48:00;;;;;;;;;;;;;;;18.42;100.00;100772.38;5113406;28;19998;-50
2023/10/03 04:50:25;;;;;;;;;;;;;;;18.37;100.00;100784.56;5113966;28;20007;-49
2023/10/03 04:52:51;;;;;;;;;;;;;;;18.34;100.00;100788.94;5116851;28;19912;-50
2023/10/03 04:55:20;;;;;;;;;;;;;;;18.27;100.00;100793.31;5117212;28;20402;-49
2023/10/03 04:57:46;;;;;;;;;;;;;;;18.20;100.00;100794.19;5117286;28;19915;-50
2023/10/03 05:00:15;;;;;;;;;;;;;;;18.12;100.00;100803.78;5116735;28;19918;-46
2023/10/03 05:02:42;;;;;;;;;;;;;;;18.06;100.00;100792.50;5117228;28;19926;-49
2023/10/03 05:05:08;;;;;;;;;;;;;;;18.02;100.00;100792.50;5117512;28;20010;-49
2023/10/03 05:07:33;;;;;;;;;;;;;;;17.99;100.00;100788.16;5116359;28;20038;-50
2023/10/03 05:09:58;;;;;;;;;;;;;;;17.94;100.00;100784.69;5117215;28;19964;-50
2023/10/03 05:12:24;;;;;;;;;;;;;;;17.92;100.00;100787.25;5116885;28;19960;-50
2023/10/03 05:14:49;;;;;;;;;;;;;;;17.89;100.00;100809.84;5116154;28;19914;-50
2023/10/03 05:17:17;;;;;;;;;;;;;;;17.88;100.00;100821.16;5116539;28;19912;-49
2023/10/03 05:19:43;;;;;;;;;;;;;;;17.87;100.00;100832.44;5117141;28;19911;-49
2023/10/03 05:22:08;;;;;;;;;;;;;;;17.83;100.00;100835.94;5116275;28;20248;-50
2023/10/03 05:24:34;;;;;;;;;;;;;;;17.82;100.00;100836.78;5116841;28;20347;-48
2023/10/03 05:26:59;;;;;;;;;;;;;;;17.79;100.00;100832.44;5116628;28;20370;-46
2023/10/03 05:29:27;;;;;;;;;;;;;;;17.76;100.00;100811.59;5116113;28;19912;-48
2023/10/03 05:31:54;;;;;;;;;;;;;;;17.70;100.00;100796.84;5116690;28;20326;-49
2023/10/03 05:34:20;;;;;;;;;;;;;;;17.66;100.00;100795.09;5115708;28;19918;-49
2023/10/03 05:36:46;;;;;;;;;;;;;;;17.64;100.00;100812.50;5116890;28;19912;-47
2023/10/03 05:39:11;;;;;;;;;;;;;;;17.61;100.00;100815.06;5116220;28;19965;-46
2023/10/03 05:41:37;;;;;;;;;;;;;;;17.62;100.00;100814.22;5115790;28;19929;-49
2023/10/03 05:44:03;;;;;;;;;;;;;;;17.63;100.00;100807.28;5116491;28;20385;-48
2023/10/03 05:46:28;;;;;;;;;;;;;;;17.63;100.00;100831.59;5116086;28;19954;-49
2023/10/03 05:48:53;;;;;;;;;;;;;;;17.63;100.00;100821.16;5115655;28;19951;-49
2023/10/03 05:51:20;;;;;;;;;;;;;;;17.64;100.00;100822.91;5116156;28;19912;-46
2023/10/03 05:53:45;;;;;;;;;;;;;;;17.65;100.00;100814.22;5116176;28;20484;-49
2023/10/03 05:56:11;;;;;;;;;;;;;;;17.64;100.00;100815.09;5115211;28;20010;-46
2023/10/03 05:58:37;;;;;;;;;;;;;;;17.62;100.00;100822.03;5116096;28;19960;-50
2023/10/03 06:01:03;;;;;;;;;;;;;;;17.62;100.00;100829.84;5116051;28;19911;-49
2023/10/03 06:03:30;;;;;;;;;;;;;;;17.62;100.00;100819.44;5114144;28;20014;-49
2023/10/03 06:05:55;;;;;;;;;;;;;;;17.60;100.00;100832.47;5116134;28;19954;-49
2023/10/03 06:08:21;;;;;;;;;;;;;;;17.58;100.00;100828.13;5115620;28;19981;-50
2023/10/03 06:10:49;;;;;;;;;;;;;;;17.58;100.00;100834.22;5115072;28;19918;-50
2023/10/03 06:13:14;;;;;;;;;;;;;;;17.56;100.00;100845.50;5115698;28;19912;-49
2023/10/03 06:15:42;;;;;;;;;;;;;;;17.55;100.00;100838.56;5115852;28;20320;-47
2023/10/03 06:18:08;;;;;;;;;;;;;;;17.55;100.00;100835.94;5115004;28;19922;-49
2023/10/03 06:20:34;;;;;;;;;;;;;;;17.55;100.00;100839.41;5115560;28;19911;-49
2023/10/03 06:22:59;;;;;;;;;;;;;;;17.53;100.00;100851.59;5115717;28;20286;-48
2023/10/03 06:25:25;;;;;;;;;;;;;;;17.52;100.00;100859.38;5114609;28;19912;-49
2023/10/03 06:27:50;;;;;;;;;;;;;;;17.51;100.00;100852.44;5115523;28;19912;-49
2023/10/03 06:30:17;;;;;;;;;;;;;;;17.52;100.00;100859.38;5115246;28;20362;-49
2023/10/03 06:32:44;;;;;;;;;;;;;;;17.50;100.00;100871.56;5114983;28;20370;-49
2023/10/03 06:35:09;;;;;;;;;;;;;;;17.50;100.00;100866.34;5115341;28;19957;-48
2023/10/03 06:37:35;;;;;;;;;;;;;;;17.46;100.00;100869.81;5114188;28;19943;-49
2023/10/03 06:40:01;;;;;;;;;;;;;;;17.40;100.00;100876.75;5115397;28;20378;-49
2023/10/03 06:42:27;;;;;;;;;;;;;;;17.32;100.00;100882.81;5115039;28;20279;-49
2023/10/03 06:44:52;;;;;;;;;;;;;;;17.18;100.00;100881.03;5114696;28;19996;-47
2023/10/03 06:47:20;;;;;;;;;;;;;;;17.07;100.00;100883.59;5115159;28;19974;-48
2023/10/03 06:49:45;;;;;;;;;;;;;;;16.99;100.00;100892.25;5115295;28;19912;-50
2023/10/03 06:52:10;;;;;;;;;;;;;;;16.92;100.00;100893.97;5114448;28;19918;-50
2023/10/03 06:54:36;;;;;;;;;;;;;;;16.86;100.00;100894.78;5115072;28;20290;-49
2023/10/03 06:57:03;;;;;;;;;;;;;;;16.80;100.00;100892.16;5114814;28;19916;-50
2023/10/03 06:59:29;;;;;;;;;;;;;;;16.77;100.00;100918.13;5113787;28;19920;-50
2023/10/03 07:01:54;;;;;;;;;;;;;;;16.73;100.00;100922.47;5114917;28;20321;-50
2023/10/03 07:04:20;;;;;;;;;;;;;;;16.70;100.00;100927.66;5114863;28;20358;-49
2023/10/03 07:06:45;;;;;;;;;;;;;;;16.67;100.00;100929.38;5114181;28;19964;-50
2023/10/03 07:09:11;;;;;;;;;;;;;;;16.64;100.00;100930.22;5114649;28;19946;-46
2023/10/03 07:11:36;;;;;;;;;;;;;;;16.61;100.00;100925.88;5114796;28;20359;-49
2023/10/03 07:14:01;;;;;;;;;;;;;;;16.59;100.00;100911.09;5113745;28;19911;-50
2023/10/03 07:16:30;;;;;;;;;;;;;;;16.59;100.00;100913.69;5114373;28;19916;-47
2023/10/03 07:18:55;;;;;;;;;;;;;;;16.56;100.00;100924.09;5114728;28;19919;-48
2023/10/03 07:21:22;;;;;;;;;;;;;;;16.56;100.00;100926.72;5113598;28;19916;-49
2023/10/03 07:23:47;;;;;;;;;;;;;;;16.60;100.00;100923.25;5114491;28;20373;-49
2023/10/03 07:26:12;;;;;;;;;;;;;;;16.64;100.00;100917.19;5114352;28;19976;-48
2023/10/03 07:28:38;;;;;;;;;;;;;;;16.68;100.00;100921.59;5113917;28;19912;-45
2023/10/03 07:31:07;;;;;;;;;;;;;;;16.72;100.00;100931.16;5114534;28;19999;-49
2023/10/03 07:33:32;;;;;;;;;;;;;;;16.75;100.00;100923.34;5114295;28;19912;-49
2023/10/03 07:36:02;;;;;;;;;;;;;;;16.81;100.00;100926.84;5113668;28;19912;-46
2023/10/03 07:38:28;;;;;;;;;;;;;;;16.85;100.00;100933.78;5114007;28;19922;-47
2023/10/03 07:40:53;;;;;;;;;;;;;;;16.90;100.00;100933.00;5113435;28;19998;-47
2023/10/03 07:43:19;;;;;;;;;;;;;;;16.97;100.00;100933.91;5113977;28;19998;-50
2023/10/03 07:45:44;;;;;;;;;;;;;;;17.04;100.00;100930.47;5114299;28;20286;-46
2023/10/03 07:48:10;;;;;;;;;;;;;;;17.10;100.00;100943.50;5113543;28;20275;-49
2023/10/03 07:50:38;;;;;;;;;;;;;;;17.19;100.00;100954.84;5113935;28;19989;-49
2023/10/03 07:53:03;;;;;;;;;;;;;;;17.23;100.00;100964.38;5114401;28;19911;-49
2023/10/03 07:55:32;;;;;;;;;;;;;;;17.23;100.00;100969.59;5112882;28;19914;-49
2023/10/03 07:57:57;;;;;;;;;;;;;;;17.24;100.00;100979.16;5114065;28;19994;-49
2023/10/03 08:00:26;;;;;;;;;;;;;;;17.22;100.00;100973.94;5113600;28;19989;-50
2023/10/03 08:02:51;;;;;;;;;;;;;;;17.21;100.00;100974.81;5113016;28;19919;-47
2023/10/03 08:05:17;;;;;;;;;;;;;;;17.19;100.00;100975.66;5113774;28;19920;-47
2023/10/03 08:07:47;;;;;;;;;;;;;;;17.13;100.00;100981.69;5114105;28;19911;-46
2023/10/03 08:10:14;;;;;;;;;;;;;;;17.06;100.00;100996.44;5112665;28;20042;-45
2023/10/03 08:12:40;;;;;;;;;;;;;;;17.00;100.00;101006.81;5113058;28;20018;-45
2023/10/03 08:15:16;;;;;;;;;;;;;;;16.92;100.00;101034.53;5113851;28;19911;-49
2023/10/03 08:17:42;;;;;;;;;;;;;;;16.86;100.00;101018.84;5113105;28;19912;-50
2023/10/03 08:20:08;;;;;;;;;;;;;;;16.81;100.00;101005.81;5113853;28;20013;-48
2023/10/03 08:22:33;;;;;;;;;;;;;;;16.82;100.00;101023.16;5113472;28;19947;-50
2023/10/03 08:25:00;;;;;;;;;;;;;;;16.84;100.00;101034.47;5112562;28;19912;-46
2023/10/03 08:27:30;;;;;;;;;;;;;;;16.89;100.00;101034.50;5113281;28;19908;-46
2023/10/03 08:29:58;;;;;;;;;;;;;;;16.95;100.00;101039.75;5112669;28;19918;-50
2023/10/03 08:32:25;;;;;;;;;;;;;;;17.02;100.00;101031.13;5113186;28;20298;-49
2023/10/03 08:34:53;;;;;;;;;;;;;;;17.10;100.00;101037.25;5113696;28;20010;-46
2023/10/03 08:37:24;;;;;;;;;;;;;;;17.17;100.00;101052.91;5112386;28;19920;-46
2023/10/03 08:39:53;;;;;;;;;;;;;;;17.21;100.00;101046.84;5113707;28;19935;-50
2023/10/03 08:42:34;;;;;;;;;;;;;;;17.29;100.00;101060.81;5113404;28;19916;-50
2023/10/03 08:45:16;;;;;;;;;;;;;;;17.43;100.00;101069.56;5112753;28;19912;-49
2023/10/03 08:47:47;;;;;;;;;;;;;;;17.53;100.00;101070.47;5113491;28;19912;-50
2023/10/03 08:50:14;;;;;;;;;;;;;;;17.61;100.00;101087.00;5113224;28;19947;-48
2023/10/03 08:52:48;;;;;;;;;;;;;;;17.66;100.00;101097.44;5112640;28;19934;-48
2023/10/03 08:55:15;;;;;;;;;;;;;;;17.63;100.00;101110.47;5113085;28;19915;-50
2023/10/03 08:57:40;;;;;;;;;;;;;;;17.55;100.00;101109.56;5113205;28;19916;-50
2023/10/03 09:00:09;;;;;;;;;;;;;;;17.33;100.00;101127.69;5112423;28;19912;-50
2023/10/03 09:02:46;;;;;;;;;;;;;;;17.06;100.00;101139.66;5113151;28;20003;-48
2023/10/03 09:05:15;;;;;;;;;;;;;;;16.72;100.00;101138.47;5112258;28;19915;-48
2023/10/03 09:07:43;;;;;;;;;;;;;;;16.53;100.00;101145.25;5113304;28;20279;-50
2023/10/03 09:10:15;;;;;;;;;;;;;;;16.40;100.00;101134.72;5113215;28;19919;-50
2023/10/03 09:12:42;;;;;;;;;;;;;;;16.36;100.00;101138.13;5112525;28;19912;-48
2023/10/03 09:15:10;;;;;;;;;;;;;;;16.43;100.00;101145.13;5113184;28;20367;-50
2023/10/03 09:17:36;;;;;;;;;;;;;;;16.61;100.00;101148.78;5112924;28;19907;-51
2023/10/03 09:20:04;;;;;;;;;;;;;;;16.84;100.00;101145.53;5112330;28;19919;-48
2023/10/03 09:22:32;;;;;;;;;;;;;;;17.11;100.00;101150.97;5112763;28;19908;-49
2023/10/03 09:24:57;;;;;;;;;;;;;;;17.40;100.00;101181.59;5112980;28;20025;-49
2023/10/03 09:27:29;;;;;;;;;;;;;;;17.60;100.00;101175.63;5111851;28;19912;-49
2023/10/03 09:29:58;;;;;;;;;;;;;;;17.63;100.00;101196.47;5112841;28;20274;-48
2023/10/03 09:32:24;;;;;;;;;;;;;;;17.65;100.00;101194.75;5112903;28;19911;-50
2023/10/03 09:35:09;;;;;;;;;;;;;;;17.63;100.00;101201.69;5112379;28;19954;-50
2023/10/03 09:37:34;;;;;;;;;;;;;;;17.55;100.00;101217.28;5113885;28;19919;-49
2023/10/03 09:40:01;;;;;;;;;;;;;;;17.44;100.00;101200.69;5116789;28;19907;-50
2023/10/03 09:42:27;;;;;;;;;;;;;;;17.28;100.00;101200.59;5115601;28;19919;-48
2023/10/03 09:44:57;;;;;;;;;;;;;;;17.23;100.00;101210.09;5116657;28;19919;-48
2023/10/03 09:47:30;;;;;;;;;;;;;;;17.26;100.00;101202.31;5115277;28;19926;-48
2023/10/03 09:50:06;;;;;;;;;;;;;;;17.31;100.00;101207.53;5116240;28;19964;-49
2023/10/03 09:52:32;;;;;;;;;;;;;;;17.31;100.00;101209.28;5116167;28;19915;-46
2023/10/03 09:55:17;;;;;;;;;;;;;;;17.29;100.00;101211.91;5115596;28;19912;-49
2023/10/03 09:57:44;;;;;;;;;;;;;;;17.21;100.00;101213.53;5116131;28;19961;-50
2023/10/03 10:00:23;;;;;;;;;;;;;;;17.10;100.00;101222.16;5116280;28;19918;-49
2023/10/03 10:02:49;;;;;;;;;;;;;;;17.00;100.00;101228.13;5115204;28;20309;-48
2023/10/03 10:05:19;;;;;;;;;;;;;;;17.01;100.00;101227.28;5116105;28;19995;-48
2023/10/03 10:08:13;;;;;;;;;;;;;;;17.02;100.00;101226.41;5115934;28;20386;-48
2023/10/03 10:10:41;;;;;;;;;;;;;;;17.07;100.00;101255.97;5101134;28;19955;-46
2023/10/03 10:13:13;;;;;;;;;;;;;;;17.16;100.00;101268.22;5115884;28;19912;-49
2023/10/03 10:15:57;;;;;;;;;;;;;;;17.23;100.00;101256.13;5115337;28;19915;-49
2023/10/03 10:19:01;;;;;;;;;;;;;;;17.31;100.00;101266.59;5115384;28;20244;-48
2023/10/03 10:21:26;;;;;;;;;;;;;;;17.28;100.00;101280.47;5052659;28;19913;-45
2023/10/03 10:24:11;;;;;;;;;;;;;;;17.13;100.00;101302.03;5052159;28;19967;-49
2023/10/03 10:26:37;;;;;;;;;;;;;;;16.94;100.00;101295.78;5090423;28;19912;-49
2023/10/03 10:29:09;;;;;;;;;;;;;;;16.82;100.00;101303.41;5115690;28;19915;-48
2023/10/03 10:31:43;;;;;;;;;;;;;;;16.75;100.00;101303.34;5114531;28;19912;-50
2023/10/03 10:34:21;;;;;;;;;;;;;;;16.77;100.00;101301.66;5115787;28;19912;-45
2023/10/03 10:36:56;;;;;;;;;;;;;;;16.83;100.00;101306.03;5114789;28;20302;-48
2023/10/03 10:39:24;;;;;;;;;;;;;;;16.90;100.00;101312.19;5115160;28;19911;-48
2023/10/03 10:42:09;;;;;;;;;;;;;;;16.96;100.00;101312.28;5115207;28;20479;-49
2023/10/03 10:44:34;;;;;;;;;;;;;;;16.79;100.00;101331.16;5114276;28;19912;-45
2023/10/03 10:47:06;;;;;;;;;;;;;;;16.42;100.00;101341.13;5115563;28;20287;-49
2023/10/03 10:49:31;;;;;;;;;;;;;;;16.11;100.00;101345.00;5114536;28;19916;-49
2023/10/03 10:52:06;;;;;;;;;;;;;;;15.84;100.00;101348.06;5114381;28;19918;-50
2023/10/03 10:54:32;;;;;;;;;;;;;;;15.60;100.00;101347.66;5114870;28;19924;-44
2023/10/03 10:57:01;;;;;;;;;;;;;;;15.38;100.00;101343.81;5114920;28;19968;-48
2023/10/03 10:59:26;;;;;;;;;;;;;;;15.23;100.00;101351.31;5114074;28;19965;-45
2023/10/03 11:01:52;;;;;;;;;;;;;;;15.17;100.00;101346.91;5114920;28;19907;-48
2023/10/03 11:04:23;;;;;;;;;;;;;;;15.13;100.00;101352.84;5114737;28;19916;-48
2023/10/03 11:06:50;;;;;;;;;;;;;;;15.25;100.00;101360.88;5114169;28;19915;-48
2023/10/03 11:09:20;;;;;;;;;;;;;;;15.41;100.00;101354.25;5114318;28;19911;-48
2023/10/03 11:11:45;;;;;;;;;;;;;;;15.44;100.00;101366.41;5114145;28;19923;-48
2023/10/03 11:14:11;;;;;;;;;;;;;;;15.41;100.00;101377.63;5114831;28;20419;-44
2023/10/03 11:16:36;;;;;;;;;;;;;;;15.36;100.00;101370.59;5114585;28;19915;-48
2023/10/03 11:19:02;;;;;;;;;;;;;;;15.32;100.00;101382.66;5113757;28;19915;-49
2023/10/03 11:21:30;;;;;;;;;;;;;;;15.34;100.00;101370.59;5114386;28;20367;-46
2023/10/03 11:24:10;;;;;;;;;;;;;;;15.35;100.00;101372.34;5114359;28;20370;-47
2023/10/03 11:26:41;;;;;;;;;;;;;;;15.33;100.00;101365.38;5113572;28;19961;-48
2023/10/03 11:29:07;;;;;;;;;;;;;;;15.39;100.00;101361.16;5114534;28;19937;-49
2023/10/03 11:31:36;;;;;;;;;;;;;;;15.56;100.00;101373.56;5113920;28;20002;-47
2023/10/03 11:34:01;;;;;;;;;;;;;;;16.08;100.00;101365.78;5113544;28;19911;-48
2023/10/03 11:36:39;;;;;;;;;;;;;;;16.64;100.00;101370.00;5113963;28;20712;-49
2023/10/03 11:39:04;;;;;;;;;;;;;;;16.89;100.00;101379.00;5114480;28;20010;-47
2023/10/03 11:41:30;;;;;;;;;;;;;;;16.98;100.00;101393.91;5113149;28;20013;-46
2023/10/03 11:43:55;;;;;;;;;;;;;;;17.34;100.00;101397.78;5114297;28;19911;-48
2023/10/03 11:46:21;;;;;;;;;;;;;;;17.86;100.00;101406.94;5113765;28;19911;-49
2023/10/03 11:48:46;;;;;;;;;;;;;;;18.35;100.00;101412.53;5113182;28;19911;-48
2023/10/03 11:51:13;;;;;;;;;;;;;;;18.40;100.00;101405.63;5113898;28;20004;-44
2023/10/03 11:53:38;;;;;;;;;;;;;;;18.12;100.00;101408.91;5114048;28;20477;-48
2023/10/03 11:56:03;;;;;;;;;;;;;;;17.76;100.00;101416.41;5113426;28;20002;-46
2023/10/03 11:58:28;;;;;;;;;;;;;;;17.39;100.00;101435.19;5113488;28;19916;-49
2023/10/03 12:00:54;;;;;;;;;;;;;;;17.17;100.00;101435.78;5112414;28;19954;-46
2023/10/03 12:03:19;;;;;;;;;;;;;;;16.88;100.00;101436.28;5113567;28;19911;-49
2023/10/03 12:05:49;;;;;;;;;;;;;;;16.65;100.00;101446.38;5114031;28;19920;-45
2023/10/03 12:08:14;;;;;;;;;;;;;;;16.70;100.00;101450.78;5112907;28;19925;-48
2023/10/03 12:10:41;;;;;;;;;;;;;;;17.23;100.00;101460.16;5113699;28;19912;-47
2023/10/03 12:13:06;;;;;;;;;;;;;;;17.46;100.00;101462.16;5113842;28;19912;-47
2023/10/03 12:15:32;;;;;;;;;;;;;;;17.46;100.00;101469.13;5112535;28;20006;-48
2023/10/03 12:17:58;;;;;;;;;;;;;;;17.46;100.00;101474.34;5113633;28;19918;-48
2023/10/03 12:20:24;;;;;;;;;;;;;;;17.32;100.00;101488.06;5113574;28;19919;-48
2023/10/03 12:22:53;;;;;;;;;;;;;;;16.99;100.00;101492.00;5113206;28;20369;-46
2023/10/03 12:25:19;;;;;;;;;;;;;;;16.48;100.00;101490.38;5113522;28;19977;-45
2023/10/03 12:27:45;;;;;;;;;;;;;;;16.23;100.00;101510.75;5113768;28;20003;-48
2023/10/03 12:30:11;;;;;;;;;;;;;;;16.05;100.00;101509.59;5112650;28;20002;-48